sensor_id;sensor_type;location;lat;lon;timestamp;P1;durP1;ratioP1;P2;durP2;ratioP2
8986;SDS011;4529;51.360;12.474;2022-07-04T00:04:07;2.23;;;2.00;;
8986;SDS011;4529;51.360;12.474;2022-07-04T00:09:11;2.10;;;2.00;;
8986;SDS011;4529;51.360;12.474;2022-07-04T00:14:14;3.20;;;1.90;;
8986;SDS011;4529;51.360;12.474;2022-07-04T00:19:18;4.93;;;2.20;;
8986;SDS011;4529;51.360;12.474;2022-07-04T00:24:22;3.40;;;2.17;;
8986;SDS011;4529;51.360;12.474;2022-07-04T00:29:26;2.47;;;1.97;;
8986;SDS011;4529;51.360;12.474;2022-07-04T00:34:31;4.27;;;2.10;;
8986;SDS011;4529;51.360;12.474;2022-07-04T00:39:34;3.17;;;2.20;;
8986;SDS011;4529;51.360;12.474;2022-07-04T00:44:38;2.73;;;2.20;;
8986;SDS011;4529;51.360;12.474;2022-07-04T00:49:41;4.70;;;2.30;;
8986;SDS011;4529;51.360;12.474;2022-07-04T00:54:45;2.33;;;2.17;;
8986;SDS011;4529;51.360;12.474;2022-07-04T00:59:48;2.50;;;2.30;;
8986;SDS011;4529;51.360;12.474;2022-07-04T01:04:52;3.47;;;3.17;;
8986;SDS011;4529;51.360;12.474;2022-07-04T01:15:17;4.93;;;4.20;;
8986;SDS011;4529;51.360;12.474;2022-07-04T01:20:21;5.27;;;4.33;;
8986;SDS011;4529;51.360;12.474;2022-07-04T01:25:25;5.77;;;3.93;;
8986;SDS011;4529;51.360;12.474;2022-07-04T01:30:30;5.87;;;3.97;;
8986;SDS011;4529;51.360;12.474;2022-07-04T01:35:33;4.00;;;3.60;;
8986;SDS011;4529;51.360;12.474;2022-07-04T01:40:36;5.20;;;3.77;;
8986;SDS011;4529;51.360;12.474;2022-07-04T01:45:40;6.07;;;3.63;;
8986;SDS011;4529;51.360;12.474;2022-07-04T01:50:43;4.00;;;3.60;;
8986;SDS011;4529;51.360;12.474;2022-07-04T01:55:47;5.03;;;3.60;;
8986;SDS011;4529;51.360;12.474;2022-07-04T02:00:50;4.13;;;3.33;;
8986;SDS011;4529;51.360;12.474;2022-07-04T02:05:54;4.23;;;3.30;;
8986;SDS011;4529;51.360;12.474;2022-07-04T02:10:57;3.77;;;3.20;;
8986;SDS011;4529;51.360;12.474;2022-07-04T02:16:01;3.77;;;3.30;;
8986;SDS011;4529;51.360;12.474;2022-07-04T02:21:04;5.20;;;3.00;;
8986;SDS011;4529;51.360;12.474;2022-07-04T02:26:08;3.37;;;3.10;;
8986;SDS011;4529;51.360;12.474;2022-07-04T02:31:11;3.20;;;3.00;;
8986;SDS011;4529;51.360;12.474;2022-07-04T02:36:15;3.53;;;3.23;;
8986;SDS011;4529;51.360;12.474;2022-07-04T02:41:18;3.87;;;3.10;;
8986;SDS011;4529;51.360;12.474;2022-07-04T02:46:22;3.80;;;3.10;;
8986;SDS011;4529;51.360;12.474;2022-07-04T02:51:25;3.70;;;3.40;;
8986;SDS011;4529;51.360;12.474;2022-07-04T02:56:28;4.07;;;3.70;;
8986;SDS011;4529;51.360;12.474;2022-07-04T03:01:32;5.17;;;4.10;;
8986;SDS011;4529;51.360;12.474;2022-07-04T03:06:35;7.40;;;3.83;;
8986;SDS011;4529;51.360;12.474;2022-07-04T03:11:39;4.23;;;3.90;;
8986;SDS011;4529;51.360;12.474;2022-07-04T03:16:42;4.37;;;4.07;;
8986;SDS011;4529;51.360;12.474;2022-07-04T03:21:46;4.47;;;4.07;;
8986;SDS011;4529;51.360;12.474;2022-07-04T03:26:49;4.90;;;4.17;;
8986;SDS011;4529;51.360;12.474;2022-07-04T03:32:02;5.67;;;4.33;;
8986;SDS011;4529;51.360;12.474;2022-07-04T03:37:06;4.30;;;3.83;;
8986;SDS011;4529;51.360;12.474;2022-07-04T03:42:10;4.33;;;3.93;;
8986;SDS011;4529;51.360;12.474;2022-07-04T03:47:14;5.20;;;4.00;;
8986;SDS011;4529;51.360;12.474;2022-07-04T03:52:18;5.10;;;3.83;;
8986;SDS011;4529;51.360;12.474;2022-07-04T03:57:22;6.43;;;3.47;;
8986;SDS011;4529;51.360;12.474;2022-07-04T04:02:25;3.37;;;3.07;;
8986;SDS011;4529;51.360;12.474;2022-07-04T04:07:29;5.53;;;3.00;;
8986;SDS011;4529;51.360;12.474;2022-07-04T04:12:32;3.10;;;2.90;;
8986;SDS011;4529;51.360;12.474;2022-07-04T04:17:36;3.20;;;3.00;;
8986;SDS011;4529;51.360;12.474;2022-07-04T04:22:39;3.23;;;2.90;;
8986;SDS011;4529;51.360;12.474;2022-07-04T04:27:42;4.37;;;2.90;;
8986;SDS011;4529;51.360;12.474;2022-07-04T04:32:46;3.40;;;2.77;;
8986;SDS011;4529;51.360;12.474;2022-07-04T04:37:49;2.70;;;2.50;;
8986;SDS011;4529;51.360;12.474;2022-07-04T04:42:53;2.80;;;2.50;;
8986;SDS011;4529;51.360;12.474;2022-07-04T04:47:56;2.70;;;2.40;;
8986;SDS011;4529;51.360;12.474;2022-07-04T04:53:00;2.47;;;2.27;;
8986;SDS011;4529;51.360;12.474;2022-07-04T04:58:03;4.13;;;2.50;;
8986;SDS011;4529;51.360;12.474;2022-07-04T05:03:07;3.73;;;2.33;;
8986;SDS011;4529;51.360;12.474;2022-07-04T05:08:10;2.40;;;2.30;;
8986;SDS011;4529;51.360;12.474;2022-07-04T05:13:14;4.30;;;2.40;;
8986;SDS011;4529;51.360;12.474;2022-07-04T05:18:17;2.50;;;2.17;;
8986;SDS011;4529;51.360;12.474;2022-07-04T05:23:20;3.40;;;2.40;;
8986;SDS011;4529;51.360;12.474;2022-07-04T05:28:24;3.13;;;2.10;;
8986;SDS011;4529;51.360;12.474;2022-07-04T05:33:27;2.30;;;2.10;;
8986;SDS011;4529;51.360;12.474;2022-07-04T05:38:31;2.40;;;2.03;;
8986;SDS011;4529;51.360;12.474;2022-07-04T05:43:34;3.57;;;2.10;;
8986;SDS011;4529;51.360;12.474;2022-07-04T05:48:38;2.00;;;1.50;;
8986;SDS011;4529;51.360;12.474;2022-07-04T05:53:41;1.97;;;1.70;;
8986;SDS011;4529;51.360;12.474;2022-07-04T05:58:45;2.63;;;1.97;;
8986;SDS011;4529;51.360;12.474;2022-07-04T06:03:49;4.23;;;2.20;;
8986;SDS011;4529;51.360;12.474;2022-07-04T06:08:52;7.33;;;2.20;;
8986;SDS011;4529;51.360;12.474;2022-07-04T06:13:55;2.60;;;1.80;;
8986;SDS011;4529;51.360;12.474;2022-07-04T06:18:59;3.47;;;1.90;;
8986;SDS011;4529;51.360;12.474;2022-07-04T06:24:02;1.80;;;1.70;;
8986;SDS011;4529;51.360;12.474;2022-07-04T06:29:06;2.90;;;1.87;;
8986;SDS011;4529;51.360;12.474;2022-07-04T06:34:10;4.13;;;1.80;;
8986;SDS011;4529;51.360;12.474;2022-07-04T06:39:14;2.30;;;1.60;;
8986;SDS011;4529;51.360;12.474;2022-07-04T06:44:18;2.00;;;1.50;;
8986;SDS011;4529;51.360;12.474;2022-07-04T06:49:21;1.83;;;1.40;;
8986;SDS011;4529;51.360;12.474;2022-07-04T06:54:25;3.33;;;1.57;;
8986;SDS011;4529;51.360;12.474;2022-07-04T06:59:28;1.90;;;1.60;;
8986;SDS011;4529;51.360;12.474;2022-07-04T07:04:32;3.53;;;1.63;;
8986;SDS011;4529;51.360;12.474;2022-07-04T07:09:35;2.27;;;1.30;;
8986;SDS011;4529;51.360;12.474;2022-07-04T07:14:39;3.97;;;1.90;;
8986;SDS011;4529;51.360;12.474;2022-07-04T07:19:42;1.90;;;1.50;;
8986;SDS011;4529;51.360;12.474;2022-07-04T07:24:46;3.13;;;1.30;;
8986;SDS011;4529;51.360;12.474;2022-07-04T07:29:50;2.00;;;1.47;;
8986;SDS011;4529;51.360;12.474;2022-07-04T07:34:55;2.00;;;1.40;;
8986;SDS011;4529;51.360;12.474;2022-07-04T07:39:59;2.50;;;1.53;;
8986;SDS011;4529;51.360;12.474;2022-07-04T07:45:03;1.77;;;1.30;;
8986;SDS011;4529;51.360;12.474;2022-07-04T07:50:06;2.43;;;1.47;;
8986;SDS011;4529;51.360;12.474;2022-07-04T07:55:10;1.80;;;1.30;;
8986;SDS011;4529;51.360;12.474;2022-07-04T08:00:15;1.20;;;1.10;;
8986;SDS011;4529;51.360;12.474;2022-07-04T08:05:18;1.20;;;1.20;;
8986;SDS011;4529;51.360;12.474;2022-07-04T08:10:21;1.50;;;1.40;;
8986;SDS011;4529;51.360;12.474;2022-07-04T08:15:25;1.63;;;1.40;;
8986;SDS011;4529;51.360;12.474;2022-07-04T08:20:28;1.37;;;1.37;;
8986;SDS011;4529;51.360;12.474;2022-07-04T08:25:32;1.60;;;1.50;;
8986;SDS011;4529;51.360;12.474;2022-07-04T08:30:35;1.70;;;1.40;;
8986;SDS011;4529;51.360;12.474;2022-07-04T08:35:39;2.40;;;1.33;;
8986;SDS011;4529;51.360;12.474;2022-07-04T08:40:42;1.93;;;1.30;;
8986;SDS011;4529;51.360;12.474;2022-07-04T08:45:46;3.70;;;1.40;;
8986;SDS011;4529;51.360;12.474;2022-07-04T08:50:50;2.30;;;1.10;;
8986;SDS011;4529;51.360;12.474;2022-07-04T08:55:52;2.17;;;1.10;;
8986;SDS011;4529;51.360;12.474;2022-07-04T09:00:57;2.23;;;1.43;;
8986;SDS011;4529;51.360;12.474;2022-07-04T09:06:03;1.20;;;1.10;;
8986;SDS011;4529;51.360;12.474;2022-07-04T09:11:07;2.60;;;1.17;;
8986;SDS011;4529;51.360;12.474;2022-07-04T09:16:10;1.30;;;1.20;;
8986;SDS011;4529;51.360;12.474;2022-07-04T09:21:14;1.33;;;1.10;;
8986;SDS011;4529;51.360;12.474;2022-07-04T09:26:21;2.43;;;0.93;;
8986;SDS011;4529;51.360;12.474;2022-07-04T09:31:27;1.13;;;1.13;;
8986;SDS011;4529;51.360;12.474;2022-07-04T09:36:30;1.57;;;1.23;;
8986;SDS011;4529;51.360;12.474;2022-07-04T09:41:49;2.77;;;1.20;;
8986;SDS011;4529;51.360;12.474;2022-07-04T09:47:03;2.47;;;1.03;;
8986;SDS011;4529;51.360;12.474;2022-07-04T09:52:05;3.17;;;1.20;;
8986;SDS011;4529;51.360;12.474;2022-07-04T09:57:08;4.20;;;1.17;;
8986;SDS011;4529;51.360;12.474;2022-07-04T10:02:12;1.20;;;1.10;;
8986;SDS011;4529;51.360;12.474;2022-07-04T10:12:36;0.80;;;0.80;;
8986;SDS011;4529;51.360;12.474;2022-07-04T10:17:40;1.87;;;1.27;;
8986;SDS011;4529;51.360;12.474;2022-07-04T10:22:44;1.47;;;1.20;;
8986;SDS011;4529;51.360;12.474;2022-07-04T10:27:49;1.73;;;1.27;;
8986;SDS011;4529;51.360;12.474;2022-07-04T10:32:53;5.00;;;1.67;;
8986;SDS011;4529;51.360;12.474;2022-07-04T10:38:03;1.03;;;1.00;;
8986;SDS011;4529;51.360;12.474;2022-07-04T10:48:34;1.40;;;1.30;;
8986;SDS011;4529;51.360;12.474;2022-07-04T10:58:59;1.50;;;1.40;;
8986;SDS011;4529;51.360;12.474;2022-07-04T11:04:04;4.67;;;1.70;;
8986;SDS011;4529;51.360;12.474;2022-07-04T11:09:15;1.53;;;1.40;;
8986;SDS011;4529;51.360;12.474;2022-07-04T11:14:30;2.47;;;1.70;;
8986;SDS011;4529;51.360;12.474;2022-07-04T11:19:40;5.07;;;1.57;;
8986;SDS011;4529;51.360;12.474;2022-07-04T11:24:43;1.80;;;1.70;;
8986;SDS011;4529;51.360;12.474;2022-07-04T11:29:54;3.53;;;1.60;;
8986;SDS011;4529;51.360;12.474;2022-07-04T11:34:57;1.73;;;1.57;;
8986;SDS011;4529;51.360;12.474;2022-07-04T11:40:00;2.57;;;1.70;;
8986;SDS011;4529;51.360;12.474;2022-07-04T11:45:04;1.60;;;1.50;;
8986;SDS011;4529;51.360;12.474;2022-07-04T11:50:08;2.00;;;1.77;;
8986;SDS011;4529;51.360;12.474;2022-07-04T11:55:17;1.90;;;1.63;;
8986;SDS011;4529;51.360;12.474;2022-07-04T12:00:20;2.40;;;1.90;;
8986;SDS011;4529;51.360;12.474;2022-07-04T12:05:23;2.10;;;1.70;;
8986;SDS011;4529;51.360;12.474;2022-07-04T12:10:26;2.00;;;1.90;;
8986;SDS011;4529;51.360;12.474;2022-07-04T12:15:40;2.10;;;1.90;;
8986;SDS011;4529;51.360;12.474;2022-07-04T12:20:42;1.80;;;1.70;;
8986;SDS011;4529;51.360;12.474;2022-07-04T12:25:47;2.23;;;1.73;;
8986;SDS011;4529;51.360;12.474;2022-07-04T12:30:50;2.77;;;2.00;;
8986;SDS011;4529;51.360;12.474;2022-07-04T12:35:59;2.30;;;1.90;;
8986;SDS011;4529;51.360;12.474;2022-07-04T12:41:02;5.57;;;1.90;;
8986;SDS011;4529;51.360;12.474;2022-07-04T12:46:12;2.87;;;2.07;;
8986;SDS011;4529;51.360;12.474;2022-07-04T12:51:30;4.87;;;2.17;;
8986;SDS011;4529;51.360;12.474;2022-07-04T12:56:35;1.90;;;1.80;;
8986;SDS011;4529;51.360;12.474;2022-07-04T13:01:40;2.10;;;1.90;;
8986;SDS011;4529;51.360;12.474;2022-07-04T13:06:43;3.23;;;2.00;;
8986;SDS011;4529;51.360;12.474;2022-07-04T13:11:46;12.53;;;2.10;;
8986;SDS011;4529;51.360;12.474;2022-07-04T13:16:50;2.00;;;1.90;;
8986;SDS011;4529;51.360;12.474;2022-07-04T13:21:53;2.13;;;2.03;;
8986;SDS011;4529;51.360;12.474;2022-07-04T13:26:57;2.00;;;1.80;;
8986;SDS011;4529;51.360;12.474;2022-07-04T13:32:00;1.90;;;1.80;;
8986;SDS011;4529;51.360;12.474;2022-07-04T13:37:04;1.93;;;1.80;;
8986;SDS011;4529;51.360;12.474;2022-07-04T13:42:08;4.10;;;1.80;;
8986;SDS011;4529;51.360;12.474;2022-07-04T13:47:13;7.80;;;1.67;;
8986;SDS011;4529;51.360;12.474;2022-07-04T13:52:16;3.90;;;1.80;;
8986;SDS011;4529;51.360;12.474;2022-07-04T13:57:20;1.60;;;1.50;;
8986;SDS011;4529;51.360;12.474;2022-07-04T14:02:23;1.90;;;1.80;;
8986;SDS011;4529;51.360;12.474;2022-07-04T14:07:26;1.83;;;1.73;;
8986;SDS011;4529;51.360;12.474;2022-07-04T14:12:30;4.30;;;1.90;;
8986;SDS011;4529;51.360;12.474;2022-07-04T14:17:33;1.97;;;1.70;;
8986;SDS011;4529;51.360;12.474;2022-07-04T14:22:37;1.50;;;1.40;;
8986;SDS011;4529;51.360;12.474;2022-07-04T14:27:40;1.77;;;1.50;;
8986;SDS011;4529;51.360;12.474;2022-07-04T14:32:44;1.53;;;1.20;;
8986;SDS011;4529;51.360;12.474;2022-07-04T14:37:47;2.20;;;1.43;;
8986;SDS011;4529;51.360;12.474;2022-07-04T14:42:51;3.77;;;1.30;;
8986;SDS011;4529;51.360;12.474;2022-07-04T14:47:54;1.33;;;1.33;;
8986;SDS011;4529;51.360;12.474;2022-07-04T14:52:58;4.03;;;1.30;;
8986;SDS011;4529;51.360;12.474;2022-07-04T14:58:01;1.43;;;1.37;;
8986;SDS011;4529;51.360;12.474;2022-07-04T15:03:05;1.37;;;1.17;;
8986;SDS011;4529;51.360;12.474;2022-07-04T15:08:09;1.47;;;1.30;;
8986;SDS011;4529;51.360;12.474;2022-07-04T15:13:13;1.90;;;1.40;;
8986;SDS011;4529;51.360;12.474;2022-07-04T15:18:17;1.40;;;1.30;;
8986;SDS011;4529;51.360;12.474;2022-07-04T15:23:20;1.10;;;1.10;;
8986;SDS011;4529;51.360;12.474;2022-07-04T15:28:24;1.20;;;1.20;;
8986;SDS011;4529;51.360;12.474;2022-07-04T15:33:27;1.93;;;1.30;;
8986;SDS011;4529;51.360;12.474;2022-07-04T15:38:31;1.20;;;1.10;;
8986;SDS011;4529;51.360;12.474;2022-07-04T15:43:34;1.93;;;1.10;;
8986;SDS011;4529;51.360;12.474;2022-07-04T15:48:38;1.03;;;1.03;;
8986;SDS011;4529;51.360;12.474;2022-07-04T15:53:41;2.40;;;1.33;;
8986;SDS011;4529;51.360;12.474;2022-07-04T15:58:45;4.33;;;1.20;;
8986;SDS011;4529;51.360;12.474;2022-07-04T16:03:48;1.50;;;1.10;;
8986;SDS011;4529;51.360;12.474;2022-07-04T16:08:52;1.00;;;1.00;;
8986;SDS011;4529;51.360;12.474;2022-07-04T16:13:55;1.90;;;1.40;;
8986;SDS011;4529;51.360;12.474;2022-07-04T16:18:59;1.10;;;1.10;;
8986;SDS011;4529;51.360;12.474;2022-07-04T16:24:02;1.33;;;1.17;;
8986;SDS011;4529;51.360;12.474;2022-07-04T16:29:05;2.13;;;1.30;;
8986;SDS011;4529;51.360;12.474;2022-07-04T16:34:09;1.20;;;1.10;;
8986;SDS011;4529;51.360;12.474;2022-07-04T16:39:13;2.33;;;1.13;;
8986;SDS011;4529;51.360;12.474;2022-07-04T16:44:17;1.20;;;1.20;;
8986;SDS011;4529;51.360;12.474;2022-07-04T16:49:20;2.97;;;2.37;;
8986;SDS011;4529;51.360;12.474;2022-07-04T16:54:23;1.67;;;1.50;;
8986;SDS011;4529;51.360;12.474;2022-07-04T16:59:27;1.83;;;1.30;;
8986;SDS011;4529;51.360;12.474;2022-07-04T17:04:30;2.20;;;1.47;;
8986;SDS011;4529;51.360;12.474;2022-07-04T17:09:35;1.23;;;1.23;;
8986;SDS011;4529;51.360;12.474;2022-07-04T17:14:38;1.87;;;1.30;;
8986;SDS011;4529;51.360;12.474;2022-07-04T17:19:42;2.50;;;1.30;;
8986;SDS011;4529;51.360;12.474;2022-07-04T17:24:45;2.33;;;1.27;;
8986;SDS011;4529;51.360;12.474;2022-07-04T17:29:48;1.40;;;1.30;;
8986;SDS011;4529;51.360;12.474;2022-07-04T17:34:52;2.40;;;1.53;;
8986;SDS011;4529;51.360;12.474;2022-07-04T17:39:56;1.50;;;1.40;;
8986;SDS011;4529;51.360;12.474;2022-07-04T17:44:59;2.57;;;1.70;;
8986;SDS011;4529;51.360;12.474;2022-07-04T17:50:03;1.27;;;1.23;;
8986;SDS011;4529;51.360;12.474;2022-07-04T17:55:06;1.80;;;1.50;;
8986;SDS011;4529;51.360;12.474;2022-07-04T18:00:10;6.57;;;1.90;;
8986;SDS011;4529;51.360;12.474;2022-07-04T18:05:13;2.47;;;1.60;;
8986;SDS011;4529;51.360;12.474;2022-07-04T18:10:17;5.67;;;1.80;;
8986;SDS011;4529;51.360;12.474;2022-07-04T18:15:20;1.83;;;1.60;;
8986;SDS011;4529;51.360;12.474;2022-07-04T18:20:23;3.20;;;1.70;;
8986;SDS011;4529;51.360;12.474;2022-07-04T18:25:28;2.47;;;1.43;;
8986;SDS011;4529;51.360;12.474;2022-07-04T18:30:32;2.50;;;1.40;;
8986;SDS011;4529;51.360;12.474;2022-07-04T18:35:36;1.50;;;1.40;;
8986;SDS011;4529;51.360;12.474;2022-07-04T18:40:40;1.67;;;1.30;;
8986;SDS011;4529;51.360;12.474;2022-07-04T18:45:44;1.40;;;1.30;;
8986;SDS011;4529;51.360;12.474;2022-07-04T18:50:48;2.13;;;1.40;;
8986;SDS011;4529;51.360;12.474;2022-07-04T18:55:53;1.30;;;1.20;;
8986;SDS011;4529;51.360;12.474;2022-07-04T19:00:57;2.67;;;1.47;;
8986;SDS011;4529;51.360;12.474;2022-07-04T19:06:00;1.30;;;1.20;;
8986;SDS011;4529;51.360;12.474;2022-07-04T19:11:04;2.20;;;1.40;;
8986;SDS011;4529;51.360;12.474;2022-07-04T19:16:07;3.47;;;1.30;;
8986;SDS011;4529;51.360;12.474;2022-07-04T19:21:23;1.30;;;1.20;;
8986;SDS011;4529;51.360;12.474;2022-07-04T19:26:26;2.43;;;1.10;;
8986;SDS011;4529;51.360;12.474;2022-07-04T19:31:29;1.50;;;1.40;;
8986;SDS011;4529;51.360;12.474;2022-07-04T19:36:33;1.37;;;1.27;;
8986;SDS011;4529;51.360;12.474;2022-07-04T19:41:36;1.20;;;1.20;;
8986;SDS011;4529;51.360;12.474;2022-07-04T19:46:40;2.07;;;1.40;;
8986;SDS011;4529;51.360;12.474;2022-07-04T19:51:43;2.97;;;1.20;;
8986;SDS011;4529;51.360;12.474;2022-07-04T19:56:47;2.93;;;1.30;;
8986;SDS011;4529;51.360;12.474;2022-07-04T20:01:50;1.10;;;1.10;;
8986;SDS011;4529;51.360;12.474;2022-07-04T20:06:54;1.53;;;1.40;;
8986;SDS011;4529;51.360;12.474;2022-07-04T20:11:57;2.77;;;1.23;;
8986;SDS011;4529;51.360;12.474;2022-07-04T20:17:01;1.40;;;1.30;;
8986;SDS011;4529;51.360;12.474;2022-07-04T20:22:06;1.20;;;1.20;;
8986;SDS011;4529;51.360;12.474;2022-07-04T20:27:10;1.30;;;1.20;;
8986;SDS011;4529;51.360;12.474;2022-07-04T20:32:14;1.50;;;1.40;;
8986;SDS011;4529;51.360;12.474;2022-07-04T20:37:18;1.67;;;1.10;;
8986;SDS011;4529;51.360;12.474;2022-07-04T20:42:22;2.10;;;1.17;;
8986;SDS011;4529;51.360;12.474;2022-07-04T20:47:26;2.13;;;1.70;;
8986;SDS011;4529;51.360;12.474;2022-07-04T20:52:31;1.40;;;1.30;;
8986;SDS011;4529;51.360;12.474;2022-07-04T20:57:34;1.17;;;1.10;;
8986;SDS011;4529;51.360;12.474;2022-07-04T21:02:39;2.60;;;1.20;;
8986;SDS011;4529;51.360;12.474;2022-07-04T21:07:42;1.67;;;1.40;;
8986;SDS011;4529;51.360;12.474;2022-07-04T21:12:46;1.40;;;1.30;;
8986;SDS011;4529;51.360;12.474;2022-07-04T21:17:49;1.90;;;1.30;;
8986;SDS011;4529;51.360;12.474;2022-07-04T21:22:53;1.37;;;1.17;;
8986;SDS011;4529;51.360;12.474;2022-07-04T21:27:56;1.43;;;1.30;;
8986;SDS011;4529;51.360;12.474;2022-07-04T21:32:59;1.97;;;1.40;;
8986;SDS011;4529;51.360;12.474;2022-07-04T21:38:04;1.77;;;1.23;;
8986;SDS011;4529;51.360;12.474;2022-07-04T21:43:08;1.80;;;1.30;;
8986;SDS011;4529;51.360;12.474;2022-07-04T21:48:11;1.50;;;1.40;;
8986;SDS011;4529;51.360;12.474;2022-07-04T21:53:15;1.20;;;1.10;;
8986;SDS011;4529;51.360;12.474;2022-07-04T21:58:18;1.73;;;1.40;;
8986;SDS011;4529;51.360;12.474;2022-07-04T22:03:22;1.20;;;1.20;;
8986;SDS011;4529;51.360;12.474;2022-07-04T22:08:25;1.40;;;1.30;;
8986;SDS011;4529;51.360;12.474;2022-07-04T22:13:29;1.10;;;1.10;;
8986;SDS011;4529;51.360;12.474;2022-07-04T22:18:32;3.37;;;1.50;;
8986;SDS011;4529;51.360;12.474;2022-07-04T22:23:35;1.97;;;1.27;;
8986;SDS011;4529;51.360;12.474;2022-07-04T22:28:39;1.43;;;1.33;;
8986;SDS011;4529;51.360;12.474;2022-07-04T22:33:42;1.37;;;1.27;;
8986;SDS011;4529;51.360;12.474;2022-07-04T22:38:46;1.77;;;1.30;;
8986;SDS011;4529;51.360;12.474;2022-07-04T22:43:49;1.70;;;1.30;;
8986;SDS011;4529;51.360;12.474;2022-07-04T22:48:53;1.67;;;1.57;;
8986;SDS011;4529;51.360;12.474;2022-07-04T22:53:56;1.27;;;1.27;;
8986;SDS011;4529;51.360;12.474;2022-07-04T22:59:00;1.50;;;1.40;;
8986;SDS011;4529;51.360;12.474;2022-07-04T23:04:05;1.20;;;1.20;;
8986;SDS011;4529;51.360;12.474;2022-07-04T23:09:09;1.37;;;1.20;;
8986;SDS011;4529;51.360;12.474;2022-07-04T23:14:13;1.60;;;1.50;;
8986;SDS011;4529;51.360;12.474;2022-07-04T23:19:17;2.10;;;1.40;;
8986;SDS011;4529;51.360;12.474;2022-07-04T23:24:21;1.40;;;1.30;;
8986;SDS011;4529;51.360;12.474;2022-07-04T23:29:25;1.90;;;1.50;;
8986;SDS011;4529;51.360;12.474;2022-07-04T23:34:29;1.57;;;1.47;;
8986;SDS011;4529;51.360;12.474;2022-07-04T23:39:33;1.50;;;1.40;;
8986;SDS011;4529;51.360;12.474;2022-07-04T23:44:38;1.47;;;1.37;;
8986;SDS011;4529;51.360;12.474;2022-07-04T23:49:41;1.40;;;1.40;;
8986;SDS011;4529;51.360;12.474;2022-07-04T23:54:45;1.73;;;1.60;;
8986;SDS011;4529;51.360;12.474;2022-07-04T23:59:48;1.60;;;1.50;;
